createdAt,value
2017-04-24T00:00:11.331Z,19.79
2017-04-24T00:01:12.787Z,19.76
2017-04-24T00:02:14.241Z,19.86
2017-04-24T00:03:15.697Z,19.82
2017-04-24T00:04:17.154Z,19.76
2017-04-24T00:05:18.610Z,19.85
2017-04-24T00:06:20.066Z,19.85
2017-04-24T00:07:21.519Z,19.82
2017-04-24T00:08:22.975Z,19.77
2017-04-24T00:09:24.429Z,19.79
2017-04-24T00:10:25.884Z,19.82
2017-04-24T00:11:27.339Z,19.77
2017-04-24T00:12:28.792Z,19.82
2017-04-24T00:13:30.245Z,19.82
2017-04-24T00:14:31.697Z,19.81
2017-04-24T00:15:33.150Z,19.69
2017-04-24T00:16:34.603Z,19.74
2017-04-24T00:17:36.055Z,19.77
2017-04-24T00:18:37.509Z,19.79
2017-04-24T00:19:38.964Z,19.73
2017-04-24T00:20:40.416Z,19.79
2017-04-24T00:21:41.871Z,19.70
2017-04-24T00:22:43.327Z,19.71
2017-04-24T00:23:44.782Z,19.79
2017-04-24T00:24:46.237Z,19.71
2017-04-24T00:25:47.690Z,19.69
2017-04-24T00:26:49.144Z,19.71
2017-04-24T00:27:50.601Z,19.63
2017-04-24T00:28:52.057Z,19.73
2017-04-24T00:29:53.513Z,19.71
2017-04-24T00:30:54.968Z,19.71
2017-04-24T00:31:56.420Z,19.63
2017-04-24T00:32:57.876Z,19.63
2017-04-24T00:33:59.331Z,19.66
2017-04-24T00:35:00.782Z,19.59
2017-04-24T00:36:02.239Z,19.62
2017-04-24T00:37:03.693Z,19.66
2017-04-24T00:38:05.161Z,19.52
2017-04-24T00:39:06.604Z,19.64
2017-04-24T00:40:08.061Z,19.52
2017-04-24T00:41:09.516Z,19.55
2017-04-24T00:42:10.971Z,19.62
2017-04-24T00:43:12.421Z,19.55
2017-04-24T00:44:13.875Z,19.51
2017-04-24T00:45:15.328Z,19.51
2017-04-24T00:46:16.781Z,19.52
2017-04-24T00:47:18.234Z,19.55
2017-04-24T00:48:19.689Z,19.56
2017-04-24T00:49:21.145Z,19.55
2017-04-24T00:50:22.596Z,19.55
2017-04-24T00:51:24.051Z,19.62
2017-04-24T00:52:25.508Z,19.52
2017-04-24T00:53:26.963Z,19.55
2017-04-24T00:54:28.416Z,19.49
2017-04-24T00:55:29.872Z,19.54
2017-04-24T00:56:31.326Z,19.49
2017-04-24T00:57:32.780Z,19.54
2017-04-24T00:58:34.238Z,19.54
2017-04-24T00:59:35.693Z,19.52
2017-04-24T01:00:37.148Z,19.59
2017-04-24T01:01:38.600Z,19.39
2017-04-24T01:02:40.056Z,19.41
2017-04-24T01:03:41.506Z,19.51
2017-04-24T01:04:42.960Z,19.39
2017-04-24T01:05:44.413Z,19.44
2017-04-24T01:06:45.867Z,19.40
2017-04-24T01:07:47.323Z,19.44
2017-04-24T01:08:48.780Z,19.37
2017-04-24T01:09:50.233Z,19.45
2017-04-24T01:10:51.685Z,19.45
2017-04-24T01:11:53.140Z,19.40
2017-04-24T01:12:54.593Z,19.40
2017-04-24T01:13:56.050Z,19.40
2017-04-24T01:14:57.500Z,19.37
2017-04-24T01:15:58.955Z,19.48
2017-04-24T01:17:00.409Z,19.40
2017-04-24T01:18:01.861Z,19.40
2017-04-24T01:19:03.317Z,19.36
2017-04-24T01:20:04.780Z,19.36
2017-04-24T01:21:06.223Z,19.44
2017-04-24T01:22:07.679Z,19.49
2017-04-24T01:23:09.134Z,19.47
2017-04-24T01:24:10.588Z,19.45
2017-04-24T01:25:12.042Z,19.44
2017-04-24T01:26:13.495Z,19.36
2017-04-24T01:27:14.949Z,19.41
2017-04-24T01:28:16.401Z,19.34
2017-04-24T01:29:17.856Z,19.36
2017-04-24T01:30:19.312Z,19.31
2017-04-24T01:31:20.764Z,19.33
2017-04-24T01:32:22.223Z,19.34
2017-04-24T01:33:23.676Z,19.33
2017-04-24T01:34:25.126Z,19.31
2017-04-24T01:35:26.582Z,19.40
2017-04-24T01:36:28.035Z,19.31
2017-04-24T01:37:29.490Z,19.33
2017-04-24T01:38:30.947Z,19.33
2017-04-24T01:39:32.403Z,19.27
2017-04-24T01:40:33.855Z,19.34
2017-04-24T01:41:35.308Z,19.36
2017-04-24T01:42:36.762Z,19.36
2017-04-24T01:43:38.217Z,19.36
2017-04-24T01:44:39.671Z,19.33
2017-04-24T01:45:41.122Z,19.36
2017-04-24T01:46:42.582Z,19.27
2017-04-24T01:47:44.035Z,19.26
2017-04-24T01:48:45.489Z,19.33
2017-04-24T01:49:46.943Z,19.27
2017-04-24T01:50:48.396Z,19.26
2017-04-24T01:51:49.855Z,19.26
2017-04-24T01:52:51.309Z,19.30
2017-04-24T01:53:52.762Z,19.29
2017-04-24T01:54:54.218Z,19.29
2017-04-24T01:55:55.671Z,19.29
2017-04-24T01:56:57.125Z,19.26
2017-04-24T01:57:58.579Z,19.24
2017-04-24T01:59:00.034Z,19.24
2017-04-24T02:00:01.491Z,19.21
2017-04-24T02:01:02.941Z,19.26
2017-04-24T02:02:04.396Z,19.16
2017-04-24T02:03:05.852Z,19.21
2017-04-24T02:04:07.306Z,19.24
2017-04-24T02:05:08.761Z,19.19
2017-04-24T02:06:10.217Z,19.08
2017-04-24T02:07:11.671Z,19.21
2017-04-24T02:08:13.126Z,19.11
2017-04-24T02:09:14.580Z,19.14
2017-04-24T02:10:16.034Z,19.21
2017-04-24T02:11:17.487Z,19.21
2017-04-24T02:12:18.940Z,19.24
2017-04-24T02:13:20.395Z,19.19
2017-04-24T02:14:21.845Z,19.14
2017-04-24T02:15:23.300Z,19.16
2017-04-24T02:16:24.754Z,19.15
2017-04-24T02:17:26.207Z,19.12
2017-04-24T02:18:27.661Z,19.15
2017-04-24T02:19:29.115Z,19.15
2017-04-24T02:20:30.570Z,19.12
2017-04-24T02:21:32.026Z,19.11
2017-04-24T02:22:33.475Z,19.15
2017-04-24T02:23:34.930Z,19.11
2017-04-24T02:24:36.381Z,19.09
2017-04-24T02:25:37.836Z,19.12
2017-04-24T02:26:39.290Z,19.08
2017-04-24T02:27:40.742Z,19.12
2017-04-24T02:28:42.197Z,19.12
2017-04-24T02:29:43.651Z,19.09
2017-04-24T02:30:45.102Z,19.12
2017-04-24T02:31:46.556Z,19.00
2017-04-24T02:32:48.011Z,19.11
2017-04-24T02:33:49.467Z,19.11
2017-04-24T02:34:50.919Z,19.07
2017-04-24T02:35:52.371Z,18.99
2017-04-24T02:36:53.832Z,19.00
2017-04-24T02:37:55.283Z,19.02
2017-04-24T02:38:56.734Z,19.02
2017-04-24T02:39:58.191Z,18.96
2017-04-24T02:40:59.647Z,18.99
2017-04-24T02:42:01.102Z,19.02
2017-04-24T02:43:02.554Z,18.99
2017-04-24T02:44:04.013Z,18.99
2017-04-24T02:45:05.464Z,19.07
2017-04-24T02:46:06.916Z,18.98
2017-04-24T02:47:08.397Z,18.96
2017-04-24T02:48:09.824Z,18.93
2017-04-24T02:49:11.277Z,18.98
2017-04-24T02:50:12.731Z,18.95
2017-04-24T02:51:14.186Z,18.92
2017-04-24T02:52:15.642Z,18.95
2017-04-24T02:53:17.095Z,18.96
2017-04-24T02:54:18.548Z,19.02
2017-04-24T02:55:20.001Z,18.93
2017-04-24T02:56:21.455Z,18.98
2017-04-24T02:57:22.910Z,19.00
2017-04-24T02:58:24.365Z,18.92
2017-04-24T02:59:25.818Z,18.96
2017-04-24T03:00:27.274Z,18.92
2017-04-24T03:01:28.730Z,18.89
2017-04-24T03:02:30.180Z,18.88
2017-04-24T03:03:31.634Z,18.90
2017-04-24T03:04:33.109Z,18.93
2017-04-24T03:05:34.541Z,18.93
2017-04-24T03:06:35.996Z,18.90
2017-04-24T03:07:37.449Z,18.89
2017-04-24T03:08:38.905Z,18.83
2017-04-24T03:09:40.360Z,18.89
2017-04-24T03:10:41.812Z,18.88
2017-04-24T03:11:43.267Z,18.88
2017-04-24T03:12:44.720Z,18.92
2017-04-24T03:13:46.173Z,18.86
2017-04-24T03:14:47.625Z,18.88
2017-04-24T03:15:49.077Z,18.86
2017-04-24T03:16:50.530Z,18.88
2017-04-24T03:17:51.985Z,18.86
2017-04-24T03:18:53.438Z,18.88
2017-04-24T03:19:54.889Z,18.84
2017-04-24T03:20:56.344Z,18.86
2017-04-24T03:21:57.799Z,18.88
2017-04-24T03:22:59.254Z,18.83
2017-04-24T03:24:00.708Z,18.89
2017-04-24T03:25:02.167Z,18.81
2017-04-24T03:26:03.618Z,18.86
2017-04-24T03:27:05.072Z,18.90
2017-04-24T03:28:06.526Z,18.78
2017-04-24T03:29:07.982Z,18.88
2017-04-24T03:30:09.435Z,18.86
2017-04-24T03:31:10.888Z,18.86
2017-04-24T03:32:12.348Z,18.88
2017-04-24T03:33:13.802Z,18.86
2017-04-24T03:34:15.255Z,18.78
2017-04-24T03:35:16.722Z,18.78
2017-04-24T03:36:18.165Z,18.78
2017-04-24T03:37:19.617Z,18.75
2017-04-24T03:38:21.074Z,18.74
2017-04-24T03:39:22.531Z,18.78
2017-04-24T03:40:23.981Z,18.83
2017-04-24T03:41:25.438Z,18.74
2017-04-24T03:42:26.892Z,18.81
2017-04-24T03:43:28.344Z,18.74
2017-04-24T03:44:29.798Z,18.73
2017-04-24T03:45:31.252Z,18.92
2017-04-24T03:46:32.704Z,18.88
2017-04-24T03:47:34.156Z,18.92
2017-04-24T03:48:35.611Z,18.86
2017-04-24T03:49:37.063Z,18.92
2017-04-24T03:50:38.516Z,18.90
2017-04-24T03:51:39.975Z,18.99
2017-04-24T03:52:41.431Z,18.99
2017-04-24T03:53:42.887Z,18.99
2017-04-24T03:54:44.340Z,19.02
2017-04-24T03:55:45.794Z,19.11
2017-04-24T03:56:47.248Z,19.02
2017-04-24T03:57:48.701Z,19.08
2017-04-24T03:58:50.160Z,19.15
2017-04-24T03:59:51.610Z,19.15
2017-04-24T04:00:53.066Z,19.26
2017-04-24T04:01:54.522Z,19.26
2017-04-24T04:02:55.975Z,19.27
2017-04-24T04:03:57.429Z,19.33
2017-04-24T04:04:58.881Z,19.34
2017-04-24T04:06:00.335Z,19.36
2017-04-24T04:07:01.791Z,19.44
2017-04-24T04:08:03.246Z,19.40
2017-04-24T04:09:04.704Z,19.44
2017-04-24T04:10:06.156Z,19.56
2017-04-24T04:11:07.791Z,19.51
2017-04-24T04:12:09.267Z,19.64
2017-04-24T04:13:10.723Z,19.71
2017-04-24T04:14:12.206Z,19.70
2017-04-24T04:15:13.631Z,19.82
2017-04-24T04:16:15.086Z,19.82
2017-04-24T04:17:16.543Z,19.89
2017-04-24T04:18:18.001Z,19.85
2017-04-24T04:19:19.453Z,19.92
2017-04-24T04:20:20.907Z,19.92
2017-04-24T04:21:22.363Z,19.88
2017-04-24T04:22:23.821Z,19.91
2017-04-24T04:23:25.295Z,19.94
2017-04-24T04:24:26.749Z,20.02
2017-04-24T04:25:28.207Z,20.11
2017-04-24T04:26:29.680Z,20.19
2017-04-24T04:27:31.142Z,20.16
2017-04-24T04:28:32.594Z,20.28
2017-04-24T04:29:34.058Z,20.32
2017-04-24T04:30:35.516Z,20.47
2017-04-24T04:31:36.978Z,20.55
2017-04-24T04:32:38.434Z,20.67
2017-04-24T04:33:39.891Z,20.78
2017-04-24T04:34:41.346Z,20.88
2017-04-24T04:35:42.805Z,21.02
2017-04-24T04:36:44.263Z,21.24
2017-04-24T04:37:45.722Z,21.30
2017-04-24T04:38:47.184Z,21.39
2017-04-24T04:39:48.646Z,21.36
2017-04-24T04:40:50.107Z,21.42
2017-04-24T04:41:51.566Z,21.46
2017-04-24T04:42:53.022Z,21.62
2017-04-24T04:43:54.479Z,21.70
2017-04-24T04:44:55.935Z,21.80
2017-04-24T04:45:57.522Z,21.76
2017-04-24T04:46:59.730Z,21.83
2017-04-24T04:48:01.188Z,21.95
2017-04-24T04:49:02.647Z,21.89
2017-04-24T04:50:04.106Z,21.96
2017-04-24T04:51:05.566Z,21.92
2017-04-24T04:52:07.023Z,21.93
2017-04-24T04:53:08.483Z,21.89
2017-04-24T04:54:09.946Z,22.17
2017-04-24T04:55:11.399Z,22.26
2017-04-24T04:56:12.849Z,22.30
2017-04-24T04:57:14.322Z,22.48
2017-04-24T04:58:15.783Z,22.75
2017-04-24T04:59:17.250Z,22.60
2017-04-24T05:00:18.711Z,22.28
2017-04-24T05:01:20.174Z,21.96
2017-04-24T05:02:21.635Z,21.73
2017-04-24T05:03:23.092Z,21.64
2017-04-24T05:04:24.568Z,21.51
2017-04-24T05:05:26.027Z,21.43
2017-04-24T05:06:27.498Z,21.39
2017-04-24T05:07:28.955Z,21.37
2017-04-24T05:08:30.413Z,21.33
2017-04-24T05:09:31.875Z,21.32
2017-04-24T05:10:33.339Z,21.32
2017-04-24T05:11:34.796Z,21.25
2017-04-24T05:12:36.255Z,21.27
2017-04-24T05:13:37.714Z,21.25
2017-04-24T05:14:39.171Z,21.21
2017-04-24T05:15:40.631Z,21.21
2017-04-24T05:16:42.091Z,21.22
2017-04-24T05:17:43.550Z,21.21
2017-04-24T05:18:45.007Z,21.20
2017-04-24T05:19:46.465Z,21.15
2017-04-24T05:20:47.929Z,21.11
2017-04-24T05:21:49.387Z,21.21
2017-04-24T05:22:50.841Z,21.21
2017-04-24T05:23:52.299Z,21.17
2017-04-24T05:24:53.758Z,21.03
2017-04-24T05:25:55.220Z,21.05
2017-04-24T05:26:56.675Z,21.05
2017-04-24T05:27:58.135Z,21.05
2017-04-24T05:28:59.594Z,21.11
2017-04-24T05:30:01.050Z,21.14
2017-04-24T05:31:02.510Z,21.09
2017-04-24T05:32:03.969Z,21.07
2017-04-24T05:33:05.428Z,21.06
2017-04-24T05:34:06.885Z,21.06
2017-04-24T05:35:08.343Z,21.12
2017-04-24T05:36:09.802Z,20.97
2017-04-24T05:37:11.261Z,20.97
2017-04-24T05:38:12.719Z,20.87
2017-04-24T05:39:14.179Z,20.87
2017-04-24T05:40:15.635Z,20.90
2017-04-24T05:41:17.095Z,20.81
2017-04-24T05:42:18.549Z,20.78
2017-04-24T05:43:20.012Z,20.75
2017-04-24T05:44:21.467Z,20.70
2017-04-24T05:45:22.923Z,20.75
2017-04-24T05:46:24.380Z,20.77
2017-04-24T05:47:25.839Z,20.70
2017-04-24T05:48:27.297Z,20.77
2017-04-24T05:49:28.758Z,20.74
2017-04-24T05:50:30.217Z,20.66
2017-04-24T05:51:31.673Z,20.72
2017-04-24T05:52:33.133Z,20.60
2017-04-24T05:53:34.589Z,20.59
2017-04-24T05:54:36.046Z,20.67
2017-04-24T05:55:37.506Z,20.56
2017-04-24T05:56:38.965Z,20.51
2017-04-24T05:57:40.423Z,20.48
2017-04-24T05:58:41.882Z,20.55
2017-04-24T05:59:43.341Z,20.51
2017-04-24T06:00:44.800Z,20.52
2017-04-24T06:01:46.262Z,20.52
2017-04-24T06:02:47.715Z,20.44
2017-04-24T06:03:49.174Z,20.47
2017-04-24T06:04:50.632Z,20.55
2017-04-24T06:05:52.091Z,20.47
2017-04-24T06:06:53.550Z,20.52
2017-04-24T06:07:55.008Z,20.50
2017-04-24T06:08:56.463Z,20.48
2017-04-24T06:09:57.923Z,20.51
2017-04-24T06:10:59.379Z,20.51
2017-04-24T06:12:00.839Z,20.52
2017-04-24T06:13:02.296Z,20.50
2017-04-24T06:14:03.754Z,20.51
2017-04-24T06:15:05.211Z,20.52
2017-04-24T06:16:06.670Z,20.55
2017-04-24T06:17:08.126Z,20.62
2017-04-24T06:18:09.585Z,20.55
2017-04-24T06:19:11.043Z,20.62
2017-04-24T06:20:12.503Z,20.62
2017-04-24T06:21:13.957Z,20.60
2017-04-24T06:22:15.418Z,20.59
2017-04-24T06:23:16.876Z,20.63
2017-04-24T06:24:18.336Z,20.59
2017-04-24T06:25:19.792Z,20.63
2017-04-24T06:26:21.251Z,20.60
2017-04-24T06:27:22.711Z,20.62
2017-04-24T06:28:24.171Z,20.60
2017-04-24T06:29:25.631Z,20.63
2017-04-24T06:30:27.089Z,20.63
2017-04-24T06:31:28.548Z,20.58
2017-04-24T06:32:30.007Z,20.59
2017-04-24T06:33:31.464Z,20.66
2017-04-24T06:34:32.924Z,20.58
2017-04-24T06:35:34.381Z,20.69
2017-04-24T06:36:35.841Z,20.60
2017-04-24T06:37:37.301Z,20.69
2017-04-24T06:38:38.758Z,20.69
2017-04-24T06:39:40.218Z,20.67
2017-04-24T06:40:41.677Z,20.69
2017-04-24T06:41:43.134Z,20.63
2017-04-24T06:42:44.593Z,20.72
2017-04-24T06:43:46.053Z,20.77
2017-04-24T06:44:47.509Z,20.74
2017-04-24T06:45:48.969Z,20.72
2017-04-24T06:46:50.425Z,20.72
2017-04-24T06:47:51.884Z,20.74
2017-04-24T06:48:53.357Z,20.69
2017-04-24T06:49:54.802Z,20.77
2017-04-24T06:50:56.261Z,20.78
2017-04-24T06:51:57.724Z,20.75
2017-04-24T06:52:59.182Z,20.72
2017-04-24T06:54:00.644Z,20.84
2017-04-24T06:55:02.105Z,20.70
2017-04-24T06:56:03.563Z,20.84
2017-04-24T06:57:05.023Z,20.82
2017-04-24T06:58:06.483Z,20.85
2017-04-24T06:59:07.943Z,20.82
2017-04-24T07:00:09.402Z,20.92
2017-04-24T07:01:10.860Z,20.84
2017-04-24T07:02:12.321Z,20.92
2017-04-24T07:03:13.778Z,20.90
2017-04-24T07:04:15.237Z,20.96
2017-04-24T07:05:16.698Z,20.96
2017-04-24T07:06:18.159Z,20.95
2017-04-24T07:07:19.620Z,20.97
2017-04-24T07:08:21.080Z,21.00
2017-04-24T07:09:22.540Z,20.96
2017-04-24T07:10:24.000Z,20.96
2017-04-24T07:11:25.460Z,20.97
2017-04-24T07:12:26.920Z,20.97
2017-04-24T07:13:28.381Z,20.87
2017-04-24T07:14:29.842Z,20.93
2017-04-24T07:15:31.303Z,20.90
2017-04-24T07:16:32.768Z,20.88
2017-04-24T07:17:34.227Z,20.92
2017-04-24T07:18:35.685Z,20.90
2017-04-24T07:19:37.142Z,20.90
2017-04-24T07:20:38.601Z,20.88
2017-04-24T07:21:40.060Z,20.88
2017-04-24T07:22:41.521Z,20.90
2017-04-24T07:23:42.980Z,20.96
2017-04-24T07:24:44.437Z,20.85
2017-04-24T07:25:45.895Z,20.93
2017-04-24T07:26:47.355Z,20.84
2017-04-24T07:27:48.817Z,20.97
2017-04-24T07:28:50.273Z,20.85
2017-04-24T07:29:51.731Z,20.88
2017-04-24T07:30:53.190Z,20.96
2017-04-24T07:31:54.648Z,20.95
2017-04-24T07:32:56.108Z,21.00
2017-04-24T07:33:57.568Z,20.87
2017-04-24T07:34:59.026Z,20.96
2017-04-24T07:36:00.483Z,20.97
2017-04-24T07:37:01.942Z,20.99
2017-04-24T07:38:03.402Z,20.99
2017-04-24T07:39:04.861Z,21.00
2017-04-24T07:40:06.319Z,20.99
2017-04-24T07:41:07.780Z,20.97
2017-04-24T07:42:09.242Z,20.99
2017-04-24T07:43:10.698Z,20.97
2017-04-24T07:44:12.156Z,20.96
2017-04-24T07:45:13.614Z,20.99
2017-04-24T07:46:15.073Z,20.99
2017-04-24T07:47:16.531Z,20.95
2017-04-24T07:48:17.992Z,20.95
2017-04-24T07:49:19.453Z,21.00
2017-04-24T07:50:20.915Z,20.99
2017-04-24T07:51:22.372Z,20.95
2017-04-24T07:52:23.838Z,20.95
2017-04-24T07:53:25.297Z,20.99
2017-04-24T07:54:26.758Z,20.99
2017-04-24T07:55:28.218Z,20.96
2017-04-24T07:56:29.680Z,20.95
2017-04-24T07:57:31.141Z,20.96
2017-04-24T07:58:32.600Z,20.96
2017-04-24T07:59:34.059Z,20.87
2017-04-24T08:00:35.521Z,20.93
2017-04-24T08:01:36.982Z,21.00
2017-04-24T08:02:38.445Z,20.92
2017-04-24T08:03:39.906Z,20.96
2017-04-24T08:04:41.367Z,21.09
2017-04-24T08:05:42.826Z,21.09
2017-04-24T08:06:44.286Z,21.14
2017-04-24T08:07:45.744Z,21.18
2017-04-24T08:08:47.205Z,21.18
2017-04-24T08:09:48.666Z,21.24
2017-04-24T08:10:50.126Z,21.15
2017-04-24T08:11:51.587Z,21.22
2017-04-24T08:12:53.047Z,21.21
2017-04-24T08:13:54.508Z,21.14
2017-04-24T08:14:55.967Z,21.24
2017-04-24T08:15:57.429Z,21.24
2017-04-24T08:16:58.888Z,21.18
2017-04-24T08:18:00.348Z,21.22
2017-04-24T08:19:01.808Z,21.21
2017-04-24T08:20:03.270Z,21.25
2017-04-24T08:21:04.729Z,21.20
2017-04-24T08:22:06.190Z,21.09
2017-04-24T08:23:07.650Z,21.21
2017-04-24T08:24:09.113Z,21.12
2017-04-24T08:25:10.571Z,21.15
2017-04-24T08:26:12.031Z,21.12
2017-04-24T08:27:13.488Z,21.21
2017-04-24T08:28:14.949Z,21.18
2017-04-24T08:29:16.410Z,21.15
2017-04-24T08:30:17.868Z,21.15
2017-04-24T08:31:19.328Z,21.17
2017-04-24T08:32:20.787Z,21.21
2017-04-24T08:33:22.250Z,21.14
2017-04-24T08:34:23.710Z,21.14
2017-04-24T08:35:25.176Z,21.24
2017-04-24T08:36:26.637Z,21.18
2017-04-24T08:37:28.096Z,21.22
2017-04-24T08:38:29.559Z,21.24
2017-04-24T08:39:31.017Z,21.11
2017-04-24T08:40:32.479Z,21.17
2017-04-24T08:41:33.939Z,21.15
2017-04-24T08:42:35.396Z,21.11
2017-04-24T08:43:36.853Z,21.14
2017-04-24T08:44:38.316Z,21.12
2017-04-24T08:45:39.776Z,21.09
2017-04-24T08:46:41.238Z,21.02
2017-04-24T08:47:42.700Z,21.03
2017-04-24T08:48:44.162Z,20.99
2017-04-24T08:49:45.622Z,21.02
2017-04-24T08:50:47.081Z,20.99
2017-04-24T08:51:48.545Z,21.00
2017-04-24T08:52:50.006Z,21.06
2017-04-24T08:53:51.466Z,20.97
2017-04-24T08:54:52.927Z,21.03
2017-04-24T08:55:54.387Z,20.99
2017-04-24T08:56:55.845Z,21.07
2017-04-24T08:57:57.307Z,21.03
2017-04-24T08:58:58.771Z,21.05
2017-04-24T09:00:00.230Z,21.05
2017-04-24T09:01:01.691Z,21.09
2017-04-24T09:02:03.155Z,21.05
2017-04-24T09:03:04.611Z,21.05
2017-04-24T09:04:06.074Z,21.02
2017-04-24T09:05:07.546Z,21.02
2017-04-24T09:06:08.996Z,21.05
2017-04-24T09:07:10.455Z,21.00
2017-04-24T09:08:11.917Z,21.03
2017-04-24T09:09:13.378Z,21.02
2017-04-24T09:10:14.840Z,20.99
2017-04-24T09:11:16.301Z,21.06
2017-04-24T09:12:17.762Z,21.09
2017-04-24T09:13:19.221Z,21.07
2017-04-24T09:14:20.681Z,21.07
2017-04-24T09:15:22.140Z,21.05
2017-04-24T09:16:23.598Z,21.06
2017-04-24T09:17:25.060Z,21.12
2017-04-24T09:18:26.522Z,21.14
2017-04-24T09:19:27.986Z,21.17
2017-04-24T09:20:29.446Z,21.17
2017-04-24T09:21:30.908Z,21.20
2017-04-24T09:22:32.375Z,21.17
2017-04-24T09:23:33.832Z,21.18
2017-04-24T09:24:35.293Z,21.20
2017-04-24T09:25:36.752Z,21.29
2017-04-24T09:26:38.213Z,21.30
2017-04-24T09:27:39.672Z,21.33
2017-04-24T09:28:41.131Z,21.29
2017-04-24T09:29:42.593Z,21.33
2017-04-24T09:30:44.052Z,21.29
2017-04-24T09:31:45.515Z,21.39
2017-04-24T09:32:46.975Z,21.35
2017-04-24T09:33:48.435Z,21.36
2017-04-24T09:34:49.894Z,21.35
2017-04-24T09:35:51.355Z,21.30
2017-04-24T09:36:52.816Z,21.32
2017-04-24T09:37:54.277Z,21.39
2017-04-24T09:38:55.738Z,21.30
2017-04-24T09:39:57.200Z,21.30
2017-04-24T09:40:58.660Z,21.29
2017-04-24T09:42:00.122Z,21.27
2017-04-24T09:43:01.583Z,21.35
2017-04-24T09:44:03.045Z,21.36
2017-04-24T09:45:04.508Z,21.32
2017-04-24T09:46:05.972Z,21.36
2017-04-24T09:47:07.429Z,21.36
2017-04-24T09:48:08.890Z,21.37
2017-04-24T09:49:10.350Z,21.37
2017-04-24T09:50:11.813Z,21.42
2017-04-24T09:51:13.274Z,21.46
2017-04-24T09:52:14.736Z,21.33
2017-04-24T09:53:16.196Z,21.35
2017-04-24T09:54:17.657Z,21.33
2017-04-24T09:55:19.118Z,21.36
2017-04-24T09:56:20.580Z,21.33
2017-04-24T09:57:22.039Z,21.30
2017-04-24T09:58:23.498Z,21.33
2017-04-24T09:59:24.959Z,21.36
2017-04-24T10:00:26.418Z,21.37
2017-04-24T10:01:27.882Z,21.27
2017-04-24T10:02:29.342Z,21.29
2017-04-24T10:03:30.806Z,21.30
2017-04-24T10:04:32.263Z,21.33
2017-04-24T10:05:33.724Z,21.33
2017-04-24T10:06:35.184Z,21.29
2017-04-24T10:07:36.649Z,21.33
2017-04-24T10:08:38.109Z,21.32
2017-04-24T10:09:39.568Z,21.30
2017-04-24T10:10:41.030Z,21.33
2017-04-24T10:11:42.492Z,21.33
2017-04-24T10:12:43.954Z,21.39
2017-04-24T10:13:45.416Z,21.30
2017-04-24T10:14:46.874Z,21.39
2017-04-24T10:15:48.338Z,21.43
2017-04-24T10:16:49.796Z,21.43
2017-04-24T10:17:51.259Z,21.51
2017-04-24T10:18:52.719Z,21.50
2017-04-24T10:19:54.181Z,21.50
2017-04-24T10:20:55.642Z,21.54
2017-04-24T10:21:57.102Z,21.55
2017-04-24T10:22:58.563Z,21.54
2017-04-24T10:24:00.022Z,21.54
2017-04-24T10:25:01.484Z,21.51
2017-04-24T10:26:02.944Z,21.54
2017-04-24T10:27:04.415Z,21.40
2017-04-24T10:28:05.869Z,21.48
2017-04-24T10:29:07.332Z,21.40
2017-04-24T10:30:08.790Z,21.37
2017-04-24T10:31:10.251Z,21.37
2017-04-24T10:32:11.710Z,21.40
2017-04-24T10:33:13.171Z,21.36
2017-04-24T10:34:14.632Z,21.52
2017-04-24T10:35:16.092Z,21.48
2017-04-24T10:36:17.554Z,21.57
2017-04-24T10:37:19.015Z,21.52
2017-04-24T10:38:20.475Z,21.52
2017-04-24T10:39:21.937Z,21.48
2017-04-24T10:40:23.398Z,21.54
2017-04-24T10:41:24.867Z,21.58
2017-04-24T10:42:26.324Z,21.55
2017-04-24T10:43:27.784Z,21.61
2017-04-24T10:44:29.243Z,21.58
2017-04-24T10:45:30.738Z,21.64
2017-04-24T10:46:32.200Z,21.60
2017-04-24T10:47:33.661Z,21.54
2017-04-24T10:48:35.123Z,21.61
2017-04-24T10:49:36.579Z,21.60
2017-04-24T10:50:38.039Z,21.51
2017-04-24T10:51:39.498Z,21.66
2017-04-24T10:52:40.958Z,21.64
2017-04-24T10:53:42.416Z,21.57
2017-04-24T10:54:43.870Z,21.62
2017-04-24T10:55:45.334Z,21.62
2017-04-24T10:56:46.793Z,21.70
2017-04-24T10:57:48.252Z,21.72
2017-04-24T10:58:49.712Z,21.64
2017-04-24T10:59:51.170Z,21.60
2017-04-24T11:00:52.630Z,21.66
2017-04-24T11:01:54.091Z,21.67
2017-04-24T11:02:55.552Z,21.54
2017-04-24T11:03:57.013Z,21.55
2017-04-24T11:04:58.468Z,21.50
2017-04-24T11:05:59.929Z,21.37
2017-04-24T11:07:01.388Z,21.52
2017-04-24T11:08:02.848Z,21.39
2017-04-24T11:09:04.309Z,21.40
2017-04-24T11:10:05.771Z,21.48
2017-04-24T11:11:07.231Z,21.43
2017-04-24T11:12:08.692Z,21.37
2017-04-24T11:13:10.153Z,21.43
2017-04-24T11:14:11.613Z,21.36
2017-04-24T11:15:13.075Z,21.33
2017-04-24T11:16:14.537Z,21.36
2017-04-24T11:17:15.997Z,21.42
2017-04-24T11:18:17.459Z,21.45
2017-04-24T11:19:18.918Z,21.37
2017-04-24T11:20:20.381Z,21.55
2017-04-24T11:21:21.853Z,21.52
2017-04-24T11:22:23.313Z,21.55
2017-04-24T11:23:24.773Z,21.52
2017-04-24T11:24:26.234Z,21.60
2017-04-24T11:25:27.704Z,21.52
2017-04-24T11:26:29.163Z,21.61
2017-04-24T11:27:30.629Z,21.57
2017-04-24T11:28:32.089Z,21.66
2017-04-24T11:29:33.548Z,21.69
2017-04-24T11:30:35.010Z,21.64
2017-04-24T11:31:36.470Z,21.60
2017-04-24T11:32:37.939Z,21.73
2017-04-24T11:33:39.400Z,21.70
2017-04-24T11:34:40.871Z,21.77
2017-04-24T11:35:42.331Z,21.75
2017-04-24T11:36:43.791Z,21.85
2017-04-24T11:37:45.252Z,21.79
2017-04-24T11:38:46.717Z,21.95
2017-04-24T11:39:48.177Z,21.87
2017-04-24T11:40:49.639Z,22.00
2017-04-24T11:41:51.097Z,21.99
2017-04-24T11:42:52.558Z,21.99
2017-04-24T11:43:54.017Z,22.07
2017-04-24T11:44:55.477Z,22.00
2017-04-24T11:45:56.939Z,22.11
2017-04-24T11:46:58.398Z,22.17
2017-04-24T11:47:59.856Z,22.14
2017-04-24T11:49:01.317Z,22.23
2017-04-24T11:50:02.779Z,22.14
2017-04-24T11:51:04.239Z,22.20
2017-04-24T11:52:05.701Z,22.20
2017-04-24T11:53:07.160Z,22.11
2017-04-24T11:54:08.620Z,22.14
2017-04-24T11:55:10.080Z,22.15
2017-04-24T11:56:11.543Z,22.17
2017-04-24T11:57:13.000Z,22.20
2017-04-24T11:58:14.465Z,22.26
2017-04-24T11:59:15.926Z,22.29
2017-04-24T12:00:17.385Z,22.14
2017-04-24T12:01:18.844Z,22.04
2017-04-24T12:02:20.306Z,22.06
2017-04-24T12:03:21.769Z,22.08
2017-04-24T12:04:23.224Z,22.10
2017-04-24T12:05:24.688Z,22.06
2017-04-24T12:06:26.149Z,22.13
2017-04-24T12:07:27.610Z,22.04
2017-04-24T12:08:29.069Z,22.04
2017-04-24T12:09:30.532Z,21.98
2017-04-24T12:10:31.991Z,21.91
2017-04-24T12:11:33.450Z,21.93
2017-04-24T12:12:34.914Z,21.92
2017-04-24T12:13:36.376Z,21.96
2017-04-24T12:14:37.836Z,21.87
2017-04-24T12:15:39.300Z,21.79
2017-04-24T12:16:40.756Z,21.77
2017-04-24T12:17:42.218Z,21.76
2017-04-24T12:18:43.680Z,21.89
2017-04-24T12:19:45.140Z,21.92
2017-04-24T12:20:46.599Z,21.91
2017-04-24T12:21:48.059Z,21.92
2017-04-24T12:22:49.521Z,21.85
2017-04-24T12:23:50.986Z,21.82
2017-04-24T12:24:52.445Z,21.75
2017-04-24T12:25:53.907Z,21.73
2017-04-24T12:26:55.370Z,21.62
2017-04-24T12:27:56.831Z,21.72
2017-04-24T12:28:58.291Z,21.76
2017-04-24T12:29:59.748Z,21.79
2017-04-24T12:31:01.211Z,21.70
2017-04-24T12:32:02.670Z,21.80
2017-04-24T12:33:04.128Z,21.82
2017-04-24T12:34:05.588Z,21.76
2017-04-24T12:35:07.048Z,21.72
2017-04-24T12:36:08.505Z,21.73
2017-04-24T12:37:09.968Z,21.76
2017-04-24T12:38:11.430Z,21.92
2017-04-24T12:39:12.894Z,21.76
2017-04-24T12:40:14.350Z,21.79
2017-04-24T12:41:15.811Z,21.70
2017-04-24T12:42:17.273Z,21.87
2017-04-24T12:43:18.737Z,21.95
2017-04-24T12:44:20.198Z,21.92
2017-04-24T12:45:21.662Z,21.95
2017-04-24T12:46:23.122Z,21.85
2017-04-24T12:47:24.580Z,21.85
2017-04-24T12:48:26.042Z,21.75
2017-04-24T12:49:27.516Z,21.72
2017-04-24T12:50:28.977Z,21.76
2017-04-24T12:51:30.436Z,21.64
2017-04-24T12:52:31.900Z,21.55
2017-04-24T12:53:33.361Z,21.51
2017-04-24T12:54:34.821Z,21.61
2017-04-24T12:55:36.283Z,21.54
2017-04-24T12:56:37.745Z,21.52
2017-04-24T12:57:39.203Z,21.57
2017-04-24T12:58:40.659Z,21.57
2017-04-24T12:59:42.118Z,21.50
2017-04-24T13:00:43.581Z,21.52
2017-04-24T13:01:45.050Z,21.50
2017-04-24T13:02:46.509Z,21.40
2017-04-24T13:03:47.968Z,21.51
2017-04-24T13:04:49.425Z,21.51
2017-04-24T13:05:50.887Z,21.37
2017-04-24T13:06:52.345Z,21.43
2017-04-24T13:07:53.806Z,21.40
2017-04-24T13:08:55.267Z,21.40
2017-04-24T13:09:56.729Z,21.39
2017-04-24T13:10:58.187Z,21.42